Time;durP1;ratioP1;P1;durP2;ratioP2;P2;SDS_P1;SDS_P2;PMS_P1;PMS_P2;Temp;Humidity;BMP_temperature;BMP_pressure;BME280_temperature;BME280_humidity;BME280_pressure;Samples;Min_cycle;Max_cycle;Signal;HPM_P1;HPM_P2
2022/12/26 00:01:34;;;;;;;;;4.67;4.00;;;;;;;;116795;1195;25182;-80
2022/12/26 00:04:03;;;;;;;;;6.67;5.00;;;;;;;;116759;1205;25224;-80
2022/12/26 00:06:32;;;;;;;;;7.33;6.00;;;;;;;;116771;1197;25550;-79
2022/12/26 00:09:02;;;;;;;;;6.00;6.00;;;;;;;;116741;1200;24914;-79
2022/12/26 00:11:31;;;;;;;;;5.00;5.00;;;;;;;;116755;1207;24968;-79
2022/12/26 00:14:11;;;;;;;;;5.33;3.33;;;;;;;;116748;1195;25214;-79
2022/12/26 00:16:41;;;;;;;;;5.33;4.00;;;;;;;;116756;1203;25248;-80
2022/12/26 00:19:09;;;;;;;;;5.33;4.00;;;;;;;;116784;1189;25559;-79
2022/12/26 00:21:38;;;;;;;;;8.00;7.00;;;;;;;;116771;1195;24724;-79
2022/12/26 00:24:06;;;;;;;;;6.75;6.75;;;;;;;;116761;1196;24782;-79
2022/12/26 00:26:35;;;;;;;;;4.00;4.00;;;;;;;;116760;1196;25546;-79
2022/12/26 00:29:04;;;;;;;;;4.00;2.00;;;;;;;;116713;1206;24728;-79
2022/12/26 00:31:33;;;;;;;;;5.50;5.00;;;;;;;;116778;1198;25402;-79
2022/12/26 00:34:02;;;;;;;;;8.00;7.00;;;;;;;;116757;1205;25149;-78
2022/12/26 00:36:32;;;;;;;;;9.00;7.00;;;;;;;;116757;1195;24898;-78
2022/12/26 00:39:01;;;;;;;;;9.00;7.50;;;;;;;;116756;1200;24729;-79
2022/12/26 00:41:30;;;;;;;;;6.25;4.75;;;;;;;;116725;1203;25534;-79
2022/12/26 00:43:59;;;;;;;;;7.67;6.00;;;;;;;;116768;1196;24901;-79
2022/12/26 00:46:27;;;;;;;;;6.75;6.50;;;;;;;;116768;1199;25512;-79
2022/12/26 00:48:56;;;;;;;;;7.00;7.00;;;;;;;;116822;1193;25579;-78
2022/12/26 00:51:25;;;;;;;;;6.00;5.50;;;;;;;;116780;1197;25625;-79
2022/12/26 00:53:53;;;;;;;;;6.67;4.67;;;;;;;;116763;1200;25386;-79
2022/12/26 00:56:21;;;;;;;;;6.67;6.00;;;;;;;;116773;1200;25058;-79
2022/12/26 00:58:49;;;;;;;;;10.67;5.33;;;;;;;;116728;1196;25633;-78
2022/12/26 01:01:20;;;;;;;;;8.00;6.00;;;;;;;;116739;1199;25394;-78
2022/12/26 01:03:49;;;;;;;;;8.50;7.00;;;;;;;;116769;1203;25606;-78
2022/12/26 01:06:17;;;;;;;;;7.25;3.25;;;;;;;;116773;1200;25125;-78
2022/12/26 01:08:46;;;;;;;;;8.00;7.00;;;;;;;;116790;1199;25736;-78
2022/12/26 01:11:38;;;;;;;;;6.00;5.00;;;;;;;;116764;1198;25234;-78
2022/12/26 01:14:04;;;;;;;;;6.00;5.00;;;;;;;;116777;1208;25422;-78
2022/12/26 01:16:32;;;;;;;;;8.33;7.00;;;;;;;;116771;1200;25652;-78
2022/12/26 01:19:00;;;;;;;;;7.33;5.00;;;;;;;;116767;1208;25566;-78
2022/12/26 01:21:29;;;;;;;;;6.50;6.00;;;;;;;;116810;1198;25646;-78
2022/12/26 01:23:57;;;;;;;;;7.00;6.00;;;;;;;;116778;1208;25440;-78
2022/12/26 01:26:25;;;;;;;;;6.00;5.00;;;;;;;;117084;1197;25500;-78
2022/12/26 01:28:53;;;;;;;;;5.00;5.00;;;;;;;;116779;1193;25122;-77
2022/12/26 01:31:22;;;;;;;;;7.00;7.00;;;;;;;;116792;1198;25536;-78
2022/12/26 01:33:50;;;;;;;;;4.67;3.00;;;;;;;;116783;1200;25443;-79
2022/12/26 01:36:19;;;;;;;;;6.50;5.00;;;;;;;;116704;1203;25026;-78
2022/12/26 01:38:47;;;;;;;;;6.67;6.00;;;;;;;;116791;1199;25100;-78
2022/12/26 01:41:16;;;;;;;;;6.00;5.00;;;;;;;;116728;1199;25182;-79
2022/12/26 01:44:02;;;;;;;;;6.67;6.33;;;;;;;;116684;1200;25150;-78
2022/12/26 01:46:31;;;;;;;;;5.00;5.00;;;;;;;;116741;1206;25597;-78
2022/12/26 01:49:06;;;;;;;;;5.00;5.00;;;;;;;;116759;1196;25221;-78
2022/12/26 01:51:38;;;;;;;;;7.00;5.33;;;;;;;;116811;1198;24925;-78
2022/12/26 01:54:09;;;;;;;;;4.00;4.00;;;;;;;;116753;1198;25009;-78
2022/12/26 01:56:59;;;;;;;;;4.00;4.00;;;;;;;;116780;1202;25461;-78
2022/12/26 01:59:30;;;;;;;;;4.50;4.50;;;;;;;;116617;1193;25218;-78
2022/12/26 02:01:59;;;;;;;;;8.00;6.50;;;;;;;;116771;1203;25405;-78
2022/12/26 02:07:20;;;;;;;;;6.25;4.50;;;;;;;;116678;1191;25577;-78
2022/12/26 02:09:48;;;;;;;;;8.00;6.00;;;;;;;;116777;1204;25002;-78
2022/12/26 02:12:20;;;;;;;;;6.00;5.00;;;;;;;;116795;1200;25502;-79
2022/12/26 02:15:10;;;;;;;;;7.00;6.00;;;;;;;;116766;1197;24737;-77
2022/12/26 02:17:39;;;;;;;;;5.00;5.00;;;;;;;;116705;1208;24910;-78
2022/12/26 02:20:22;;;;;;;;;6.00;4.67;;;;;;;;116807;1206;25289;-78
2022/12/26 02:23:21;;;;;;;;;6.00;6.00;;;;;;;;116788;1200;25275;-78
2022/12/26 02:26:26;;;;;;;;;6.50;4.50;;;;;;;;116725;1208;24665;-78
2022/12/26 02:29:01;;;;;;;;;3.00;3.00;;;;;;;;116743;1198;24920;-77
2022/12/26 02:31:49;;;;;;;;;5.00;5.00;;;;;;;;116704;1199;25567;-77
2022/12/26 02:34:20;;;;;;;;;5.00;5.00;;;;;;;;116804;1196;25171;-78
2022/12/26 02:36:59;;;;;;;;;7.33;4.00;;;;;;;;116703;1193;24841;-78
2022/12/26 02:39:45;;;;;;;;;3.00;2.00;;;;;;;;116756;1197;25324;-78
2022/12/26 02:42:23;;;;;;;;;5.50;4.50;;;;;;;;116792;1200;25149;-78
2022/12/26 02:48:12;;;;;;;;;5.00;5.00;;;;;;;;116662;1193;25434;-78
2022/12/26 03:14:18;;;;;;;;;7.50;7.00;;;;;;;;116802;1196;25519;-77
2022/12/26 03:19:56;;;;;;;;;8.33;6.00;;;;;;;;116759;1208;25159;-79
2022/12/26 03:22:50;;;;;;;;;6.50;6.50;;;;;;;;116764;1205;25694;-79
2022/12/26 03:28:25;;;;;;;;;5.50;4.00;;;;;;;;116788;1206;25178;-78
2022/12/26 03:30:55;;;;;;;;;6.00;5.33;;;;;;;;116769;1208;24753;-78
2022/12/26 03:36:39;;;;;;;;;7.00;6.00;;;;;;;;116799;1200;25390;-78
2022/12/26 03:39:14;;;;;;;;;7.50;7.00;;;;;;;;116750;1206;24854;-79
2022/12/26 04:20:27;;;;;;;;;6.00;6.00;;;;;;;;116825;1200;24773;-78
2022/12/26 04:46:29;;;;;;;;;4.00;4.00;;;;;;;;116796;1201;24788;-78
2022/12/26 04:51:45;;;;;;;;;5.00;5.00;;;;;;;;116782;1202;24776;-80
2022/12/26 04:54:14;;;;;;;;;3.00;3.00;;;;;;;;116754;1199;24810;-79
2022/12/26 04:56:42;;;;;;;;;5.67;5.67;;;;;;;;116787;1199;25265;-80
2022/12/26 04:59:10;;;;;;;;;4.75;4.50;;;;;;;;116782;1208;25599;-76
2022/12/26 05:10:19;;;;;;;;;6.67;4.33;;;;;;;;116783;1196;25454;-79
2022/12/26 05:12:48;;;;;;;;;6.00;6.00;;;;;;;;116825;1205;25367;-78
2022/12/26 05:15:17;;;;;;;;;6.50;4.50;;;;;;;;116792;1205;24807;-77
2022/12/26 05:29:06;;;;;;;;;7.00;5.00;;;;;;;;116784;1199;24675;-79
2022/12/26 05:31:34;;;;;;;;;8.00;6.00;;;;;;;;116799;1199;25243;-79
2022/12/26 05:34:05;;;;;;;;;7.00;6.33;;;;;;;;116820;1199;25047;-80
2022/12/26 05:36:37;;;;;;;;;6.50;5.75;;;;;;;;116800;1194;25103;-78
2022/12/26 05:39:07;;;;;;;;;6.67;5.00;;;;;;;;116776;1208;25562;-77
2022/12/26 05:41:36;;;;;;;;;5.00;5.00;;;;;;;;116807;1199;25260;-78
2022/12/26 05:44:05;;;;;;;;;2.50;2.50;;;;;;;;116811;1200;24883;-77
2022/12/26 05:46:34;;;;;;;;;8.00;7.00;;;;;;;;116811;1208;24749;-78
2022/12/26 05:49:04;;;;;;;;;8.00;7.00;;;;;;;;116793;1199;25373;-78
2022/12/26 05:51:32;;;;;;;;;4.00;4.00;;;;;;;;116805;1200;25291;-78
2022/12/26 05:54:01;;;;;;;;;7.00;5.00;;;;;;;;116804;1199;25035;-79
2022/12/26 05:56:30;;;;;;;;;8.00;6.00;;;;;;;;116781;1196;24683;-78
2022/12/26 05:58:59;;;;;;;;;6.50;5.50;;;;;;;;116778;1200;25648;-78
2022/12/26 06:01:28;;;;;;;;;6.67;6.67;;;;;;;;116769;1200;24689;-77
2022/12/26 06:03:58;;;;;;;;;7.00;7.00;;;;;;;;116778;1206;25336;-81
2022/12/26 06:06:28;;;;;;;;;7.00;3.00;;;;;;;;116799;1194;24809;-81
2022/12/26 06:08:56;;;;;;;;;2.00;2.00;;;;;;;;116784;1193;24767;-80
2022/12/26 06:11:26;;;;;;;;;7.00;5.33;;;;;;;;116717;1200;26334;-80
2022/12/26 06:13:54;;;;;;;;;6.50;5.00;;;;;;;;116846;1203;25671;-81
2022/12/26 06:16:22;;;;;;;;;5.33;5.00;;;;;;;;116747;1204;24841;-81
2022/12/26 06:18:53;;;;;;;;;4.67;4.67;;;;;;;;116806;1193;24645;-80
2022/12/26 06:21:22;;;;;;;;;6.00;6.00;;;;;;;;116842;1205;25226;-80
2022/12/26 06:23:50;;;;;;;;;8.00;6.50;;;;;;;;116786;1200;25080;-80
2022/12/26 06:26:18;;;;;;;;;6.00;6.00;;;;;;;;116773;1203;24695;-80
2022/12/26 06:28:47;;;;;;;;;6.33;4.67;;;;;;;;116806;1200;25349;-80
2022/12/26 06:31:19;;;;;;;;;9.00;7.00;;;;;;;;116783;1193;25861;-80
2022/12/26 06:33:50;;;;;;;;;8.00;6.00;;;;;;;;116800;1204;25375;-81
2022/12/26 06:36:21;;;;;;;;;6.00;6.00;;;;;;;;116794;1196;25170;-81
2022/12/26 06:38:51;;;;;;;;;6.00;6.00;;;;;;;;116770;1199;25164;-81
2022/12/26 06:41:21;;;;;;;;;7.00;4.50;;;;;;;;116793;1200;25663;-80
2022/12/26 06:43:50;;;;;;;;;6.00;5.00;;;;;;;;116781;1197;24736;-79
2022/12/26 06:46:20;;;;;;;;;5.00;4.00;;;;;;;;116778;1197;25527;-81
2022/12/26 06:48:50;;;;;;;;;7.00;5.00;;;;;;;;116786;1197;25129;-80
2022/12/26 06:51:22;;;;;;;;;6.50;6.00;;;;;;;;116739;1199;25108;-81
2022/12/26 06:53:52;;;;;;;;;7.50;5.50;;;;;;;;116574;1206;25313;-80
2022/12/26 06:56:25;;;;;;;;;9.25;6.00;;;;;;;;116775;1193;25609;-81
2022/12/26 06:58:55;;;;;;;;;7.00;6.00;;;;;;;;116837;1199;25075;-81
2022/12/26 07:01:25;;;;;;;;;7.50;6.50;;;;;;;;116789;1203;25458;-81
2022/12/26 07:03:54;;;;;;;;;3.00;3.00;;;;;;;;116820;1191;25085;-80
2022/12/26 07:06:25;;;;;;;;;6.50;6.50;;;;;;;;116810;1200;25001;-80
2022/12/26 07:08:57;;;;;;;;;8.00;8.00;;;;;;;;116776;1199;26315;-80
2022/12/26 07:11:28;;;;;;;;;9.67;6.33;;;;;;;;116819;1205;24668;-81
2022/12/26 07:13:57;;;;;;;;;4.00;4.00;;;;;;;;116796;1193;25035;-81
2022/12/26 07:16:25;;;;;;;;;8.00;6.33;;;;;;;;116813;1193;25009;-80
2022/12/26 07:18:55;;;;;;;;;7.00;5.33;;;;;;;;116780;1197;25205;-82
2022/12/26 07:21:24;;;;;;;;;4.25;4.00;;;;;;;;116804;1196;25114;-81
2022/12/26 07:23:54;;;;;;;;;10.00;6.67;;;;;;;;116771;1196;25411;-80
2022/12/26 07:26:22;;;;;;;;;;;;;;;;;;116819;1203;25091;-81
2022/12/26 07:28:58;;;;;;;;;5.00;5.00;;;;;;;;116758;1206;25089;-80
2022/12/26 07:31:29;;;;;;;;;8.00;5.00;;;;;;;;117097;1197;24768;-81
2022/12/26 07:33:58;;;;;;;;;5.33;5.33;;;;;;;;116770;1196;24820;-80
2022/12/26 07:36:26;;;;;;;;;6.25;6.25;;;;;;;;116760;1197;24818;-79
2022/12/26 07:38:55;;;;;;;;;7.00;5.33;;;;;;;;116815;1203;25657;-80
2022/12/26 07:44:10;;;;;;;;;6.00;5.00;;;;;;;;116773;1200;25093;-81
2022/12/26 07:46:39;;;;;;;;;7.33;5.67;;;;;;;;116743;1199;25569;-82
2022/12/26 07:49:07;;;;;;;;;4.00;3.00;;;;;;;;116795;1199;25322;-80
2022/12/26 07:51:36;;;;;;;;;7.00;5.00;;;;;;;;116775;1200;24799;-81
2022/12/26 07:54:04;;;;;;;;;8.00;6.00;;;;;;;;116722;1208;24777;-81
2022/12/26 07:56:39;;;;;;;;;7.00;6.00;;;;;;;;116778;1197;25470;-81
2022/12/26 07:59:16;;;;;;;;;5.00;5.00;;;;;;;;116781;1203;25345;-81
2022/12/26 08:01:45;;;;;;;;;7.00;6.67;;;;;;;;116744;1200;24985;-79
2022/12/26 08:04:14;;;;;;;;;5.00;5.00;;;;;;;;116799;1199;25470;-80
2022/12/26 08:06:44;;;;;;;;;6.00;4.50;;;;;;;;116644;1200;24664;-79
2022/12/26 08:09:16;;;;;;;;;7.67;5.67;;;;;;;;116813;1199;25181;-79
2022/12/26 08:11:46;;;;;;;;;8.00;5.00;;;;;;;;116815;1206;24681;-79
2022/12/26 08:14:17;;;;;;;;;5.00;4.50;;;;;;;;116741;1196;25266;-79
2022/12/26 08:16:46;;;;;;;;;8.00;6.00;;;;;;;;116836;1202;24764;-79
2022/12/26 08:19:20;;;;;;;;;6.33;6.00;;;;;;;;116744;1199;26083;-80
2022/12/26 08:21:48;;;;;;;;;10.00;5.00;;;;;;;;116792;1199;24790;-79
2022/12/26 08:24:17;;;;;;;;;7.67;7.00;;;;;;;;117046;1195;25164;-80
2022/12/26 08:26:45;;;;;;;;;9.00;7.67;;;;;;;;116752;1205;25284;-79
2022/12/26 08:29:13;;;;;;;;;10.50;6.50;;;;;;;;116753;1200;25594;-79
2022/12/26 08:31:42;;;;;;;;;5.50;5.50;;;;;;;;116755;1198;24730;-79
2022/12/26 08:34:12;;;;;;;;;11.00;8.00;;;;;;;;116781;1197;24869;-79
2022/12/26 08:36:40;;;;;;;;;7.33;6.33;;;;;;;;116761;1201;25659;-79
2022/12/26 08:39:08;;;;;;;;;8.00;7.00;;;;;;;;116723;1200;25003;-79
2022/12/26 08:41:36;;;;;;;;;8.00;8.00;;;;;;;;116746;1198;24934;-80
2022/12/26 08:44:05;;;;;;;;;10.00;8.00;;;;;;;;116794;1200;25629;-79
2022/12/26 08:46:53;;;;;;;;;11.00;7.00;;;;;;;;116811;1201;24923;-79
2022/12/26 08:49:21;;;;;;;;;8.50;7.25;;;;;;;;116777;1200;25332;-79
2022/12/26 08:51:50;;;;;;;;;7.67;7.00;;;;;;;;116771;1198;25057;-79
2022/12/26 08:54:18;;;;;;;;;11.00;7.00;;;;;;;;116758;1200;24696;-80
2022/12/26 08:56:46;;;;;;;;;11.33;6.33;;;;;;;;116748;1199;24765;-79
2022/12/26 08:59:15;;;;;;;;;7.75;7.25;;;;;;;;116751;1200;25049;-79
2022/12/26 09:01:43;;;;;;;;;10.00;10.00;;;;;;;;116825;1199;25099;-78
2022/12/26 09:04:12;;;;;;;;;9.00;8.50;;;;;;;;116825;1208;25639;-79
2022/12/26 09:06:40;;;;;;;;;12.67;7.00;;;;;;;;116781;1197;25044;-79
2022/12/26 09:09:10;;;;;;;;;12.50;8.00;;;;;;;;116757;1200;25360;-79
2022/12/26 09:11:40;;;;;;;;;7.67;7.33;;;;;;;;116785;1199;24784;-79
2022/12/26 09:14:09;;;;;;;;;10.33;8.33;;;;;;;;116804;1199;25578;-79
2022/12/26 09:16:45;;;;;;;;;8.50;8.00;;;;;;;;116796;1206;24989;-80
2022/12/26 09:19:19;;;;;;;;;8.00;6.00;;;;;;;;116779;1205;25589;-80
2022/12/26 09:22:49;;;;;;;;;11.00;6.50;;;;;;;;116795;1196;25637;-79
2022/12/26 09:24:37;;;;;;;;;6.50;6.50;;;;;;;;116798;1199;24879;-79
2022/12/26 09:27:05;;;;;;;;;7.00;7.00;;;;;;;;116774;1203;25436;-81
2022/12/26 09:29:33;;;;;;;;;6.00;5.00;;;;;;;;116773;1204;25396;-81
2022/12/26 09:32:02;;;;;;;;;10.33;7.67;;;;;;;;116790;1202;25341;-80
2022/12/26 09:34:30;;;;;;;;;8.00;7.00;;;;;;;;116752;1200;24985;-81
2022/12/26 09:36:58;;;;;;;;;10.33;8.00;;;;;;;;116739;1208;24835;-81
2022/12/26 09:39:27;;;;;;;;;7.67;6.67;;;;;;;;116770;1206;25162;-80
2022/12/26 09:42:06;;;;;;;;;12.00;8.33;;;;;;;;116757;1208;25023;-80
2022/12/26 09:44:58;;;;;;;;;11.00;7.00;;;;;;;;116804;1206;25003;-80
2022/12/26 09:47:42;;;;;;;;;10.67;8.33;;;;;;;;116810;1200;24982;-79
2022/12/26 09:50:14;;;;;;;;;12.67;7.67;;;;;;;;116750;1199;25561;-80
2022/12/26 09:52:55;;;;;;;;;9.00;8.00;;;;;;;;116738;1197;25113;-81
2022/12/26 09:55:36;;;;;;;;;9.33;8.00;;;;;;;;116804;1196;24978;-82
2022/12/26 09:58:12;;;;;;;;;12.33;8.00;;;;;;;;116758;1193;25578;-81
2022/12/26 10:01:19;;;;;;;;;7.50;7.50;;;;;;;;116790;1199;25611;-81
2022/12/26 10:03:53;;;;;;;;;9.50;7.50;;;;;;;;116725;1199;24786;-82
2022/12/26 10:06:26;;;;;;;;;11.75;9.25;;;;;;;;116783;1200;25197;-81
2022/12/26 10:09:14;;;;;;;;;8.50;8.00;;;;;;;;116755;1189;25279;-80
2022/12/26 10:12:04;;;;;;;;;9.33;9.33;;;;;;;;116754;1200;24867;-81
2022/12/26 10:14:50;;;;;;;;;10.00;8.50;;;;;;;;116782;1199;24852;-80
2022/12/26 10:17:33;;;;;;;;;12.50;7.00;;;;;;;;116792;1199;25360;-80
2022/12/26 10:20:04;;;;;;;;;9.00;8.00;;;;;;;;116803;1197;25285;-81
2022/12/26 10:22:33;;;;;;;;;12.00;9.00;;;;;;;;116814;1204;25541;-81
2022/12/26 10:25:02;;;;;;;;;8.75;6.25;;;;;;;;116802;1197;25005;-82
2022/12/26 10:27:38;;;;;;;;;17.00;7.00;;;;;;;;116746;1203;25060;-81
2022/12/26 10:30:15;;;;;;;;;5.67;5.00;;;;;;;;116807;1196;25390;-81
2022/12/26 10:32:47;;;;;;;;;5.75;5.75;;;;;;;;116804;1200;25055;-81
2022/12/26 10:35:22;;;;;;;;;9.67;9.67;;;;;;;;116808;1202;25459;-81
2022/12/26 10:37:52;;;;;;;;;10.50;7.50;;;;;;;;116760;1200;25522;-80
2022/12/26 10:40:51;;;;;;;;;7.00;6.33;;;;;;;;116782;1200;25156;-81
2022/12/26 10:43:19;;;;;;;;;10.00;9.00;;;;;;;;116683;1199;25510;-80
2022/12/26 10:45:59;;;;;;;;;11.00;7.00;;;;;;;;116756;1196;25596;-82
2022/12/26 10:48:28;;;;;;;;;10.00;8.00;;;;;;;;116765;1193;25090;-80
2022/12/26 10:50:56;;;;;;;;;11.00;8.00;;;;;;;;116767;1195;25473;-79
2022/12/26 10:53:25;;;;;;;;;9.50;9.50;;;;;;;;116811;1208;24748;-79
2022/12/26 10:55:53;;;;;;;;;10.00;9.33;;;;;;;;116736;1194;25573;-79
2022/12/26 10:58:31;;;;;;;;;5.00;5.00;;;;;;;;116747;1207;25050;-79
2022/12/26 11:01:27;;;;;;;;;11.00;8.50;;;;;;;;116793;1199;24894;-81
2022/12/26 11:03:58;;;;;;;;;10.00;7.50;;;;;;;;116724;1208;25250;-80
2022/12/26 11:06:37;;;;;;;;;10.00;6.00;;;;;;;;116777;1196;25598;-81
2022/12/26 11:09:06;;;;;;;;;11.00;9.00;;;;;;;;116830;1206;25257;-79
2022/12/26 11:11:44;;;;;;;;;7.00;7.00;;;;;;;;116762;1197;25394;-80
2022/12/26 11:14:33;;;;;;;;;7.67;6.00;;;;;;;;116762;1206;25210;-79
2022/12/26 11:17:13;;;;;;;;;10.00;9.00;;;;;;;;116787;1200;26125;-80
2022/12/26 11:19:43;;;;;;;;;11.33;8.00;;;;;;;;116790;1197;25071;-80
2022/12/26 11:22:20;;;;;;;;;8.00;8.00;;;;;;;;116767;1200;25622;-80
2022/12/26 11:25:15;;;;;;;;;12.00;10.00;;;;;;;;116755;1200;24698;-81
2022/12/26 11:27:46;;;;;;;;;13.50;7.50;;;;;;;;116660;1198;25340;-80
2022/12/26 11:30:36;;;;;;;;;7.00;7.00;;;;;;;;116744;1199;24730;-78
2022/12/26 11:33:18;;;;;;;;;12.50;10.00;;;;;;;;116776;1205;24848;-82
2022/12/26 11:35:57;;;;;;;;;12.00;7.00;;;;;;;;116791;1196;25016;-81
2022/12/26 11:38:35;;;;;;;;;5.33;5.33;;;;;;;;116759;1199;25566;-80
2022/12/26 11:41:31;;;;;;;;;6.00;5.33;;;;;;;;116860;1200;25545;-80
2022/12/26 11:44:39;;;;;;;;;9.67;7.00;;;;;;;;116717;1200;25667;-79
2022/12/26 11:47:27;;;;;;;;;8.00;6.00;;;;;;;;116712;1208;25583;-77
2022/12/26 11:49:59;;;;;;;;;10.00;8.00;;;;;;;;116799;1203;25401;-80
2022/12/26 11:52:38;;;;;;;;;9.33;6.67;;;;;;;;116781;1206;24734;-80
2022/12/26 11:55:21;;;;;;;;;7.00;6.50;;;;;;;;116746;1208;25629;-78
2022/12/26 11:58:00;;;;;;;;;8.00;7.00;;;;;;;;116757;1202;24800;-80
2022/12/26 12:00:29;;;;;;;;;9.00;9.00;;;;;;;;116776;1196;24818;-79
2022/12/26 12:02:57;;;;;;;;;5.00;5.00;;;;;;;;116767;1203;25068;-80
2022/12/26 12:05:32;;;;;;;;;6.50;5.50;;;;;;;;116789;1206;24992;-78
2022/12/26 12:08:26;;;;;;;;;8.00;8.00;;;;;;;;116762;1196;24693;-78
2022/12/26 12:11:00;;;;;;;;;9.00;8.00;;;;;;;;116782;1196;25243;-79
2022/12/26 12:14:07;;;;;;;;;12.00;8.00;;;;;;;;116704;1193;25316;-78
2022/12/26 12:16:46;;;;;;;;;11.75;8.25;;;;;;;;116757;1196;24785;-80
2022/12/26 12:19:27;;;;;;;;;9.00;7.00;;;;;;;;116783;1197;25348;-79
2022/12/26 12:22:08;;;;;;;;;10.00;7.00;;;;;;;;116736;1198;26334;-79
2022/12/26 12:25:14;;;;;;;;;11.33;10.33;;;;;;;;116758;1200;25549;-78
2022/12/26 12:28:02;;;;;;;;;8.33;7.00;;;;;;;;116706;1202;25008;-79
2022/12/26 12:30:36;;;;;;;;;7.00;7.00;;;;;;;;116778;1206;24682;-78
2022/12/26 12:33:14;;;;;;;;;10.00;8.00;;;;;;;;116759;1193;25122;-77
2022/12/26 12:35:45;;;;;;;;;8.00;8.00;;;;;;;;116739;1203;25088;-78
2022/12/26 12:38:37;;;;;;;;;7.00;7.00;;;;;;;;116720;1200;25189;-75
2022/12/26 12:41:15;;;;;;;;;9.50;7.50;;;;;;;;116773;1196;25019;-77
2022/12/26 12:44:04;;;;;;;;;8.33;6.33;;;;;;;;116777;1194;25017;-77
2022/12/26 12:46:48;;;;;;;;;10.75;7.25;;;;;;;;117078;1193;25587;-77
2022/12/26 12:49:35;;;;;;;;;12.50;8.00;;;;;;;;116784;1203;24964;-77
2022/12/26 12:52:17;;;;;;;;;12.00;8.00;;;;;;;;116737;1200;25164;-78
2022/12/26 12:54:55;;;;;;;;;7.00;7.00;;;;;;;;116778;1198;24852;-77
2022/12/26 12:57:39;;;;;;;;;8.00;8.00;;;;;;;;116767;1203;25022;-78
2022/12/26 13:00:12;;;;;;;;;8.50;7.00;;;;;;;;116747;1200;25199;-78
2022/12/26 13:02:51;;;;;;;;;9.00;8.00;;;;;;;;116785;1200;25249;-79
2022/12/26 13:05:26;;;;;;;;;12.33;7.67;;;;;;;;116612;1198;25027;-78
2022/12/26 13:08:40;;;;;;;;;8.00;7.00;;;;;;;;116731;1197;25448;-77
2022/12/26 13:11:24;;;;;;;;;7.00;6.67;;;;;;;;116858;1194;25493;-78
2022/12/26 13:14:06;;;;;;;;;6.50;6.50;;;;;;;;116809;1199;24960;-78
2022/12/26 13:16:42;;;;;;;;;7.50;7.00;;;;;;;;116780;1206;25533;-78
2022/12/26 13:19:39;;;;;;;;;8.50;7.00;;;;;;;;116746;1200;25515;-78
2022/12/26 13:22:18;;;;;;;;;12.00;8.00;;;;;;;;116757;1196;25365;-78
2022/12/26 13:24:53;;;;;;;;;8.50;8.00;;;;;;;;116761;1199;25691;-78
2022/12/26 13:27:25;;;;;;;;;12.00;7.00;;;;;;;;116753;1200;25847;-78
2022/12/26 13:29:53;;;;;;;;;9.00;6.33;;;;;;;;116698;1204;25630;-77
2022/12/26 13:32:24;;;;;;;;;6.67;6.67;;;;;;;;116658;1200;25195;-78
2022/12/26 13:34:54;;;;;;;;;9.00;8.00;;;;;;;;116736;1199;25983;-78
2022/12/26 13:37:38;;;;;;;;;10.00;8.00;;;;;;;;116783;1203;25491;-78
2022/12/26 13:40:12;;;;;;;;;11.00;8.00;;;;;;;;116763;1197;24776;-77
2022/12/26 13:45:36;;;;;;;;;7.00;5.00;;;;;;;;116753;1206;24865;-77
2022/12/26 13:48:16;;;;;;;;;5.00;5.00;;;;;;;;116770;1193;25221;-77
2022/12/26 13:50:49;;;;;;;;;11.00;5.67;;;;;;;;116782;1200;24957;-76
2022/12/26 13:53:39;;;;;;;;;6.00;6.00;;;;;;;;116734;1195;25399;-77
2022/12/26 13:56:29;;;;;;;;;8.00;6.67;;;;;;;;116730;1203;25210;-77
2022/12/26 13:59:26;;;;;;;;;7.50;5.50;;;;;;;;116721;1193;25575;-77
2022/12/26 14:02:12;;;;;;;;;8.00;7.00;;;;;;;;116809;1193;25449;-77
2022/12/26 14:05:21;;;;;;;;;7.50;6.50;;;;;;;;116790;1208;25475;-76
2022/12/26 14:08:12;;;;;;;;;7.00;6.00;;;;;;;;116656;1205;25375;-77
2022/12/26 14:11:18;;;;;;;;;9.00;9.00;;;;;;;;116807;1200;26099;-77
2022/12/26 14:14:04;;;;;;;;;5.33;4.67;;;;;;;;116772;1193;25517;-78
2022/12/26 14:16:38;;;;;;;;;8.00;7.00;;;;;;;;116732;1189;25663;-77
2022/12/26 14:19:21;;;;;;;;;7.00;6.00;;;;;;;;116757;1200;25502;-77
2022/12/26 14:21:58;;;;;;;;;9.50;6.00;;;;;;;;116709;1202;25198;-77
2022/12/26 14:24:48;;;;;;;;;10.00;7.00;;;;;;;;116713;1199;25622;-77
2022/12/26 14:27:29;;;;;;;;;12.67;9.00;;;;;;;;116764;1201;25031;-77
2022/12/26 14:30:23;;;;;;;;;13.00;7.00;;;;;;;;116761;1196;25040;-77
2022/12/26 14:33:11;;;;;;;;;5.00;5.00;;;;;;;;116751;1199;25725;-77
2022/12/26 14:36:00;;;;;;;;;9.00;7.00;;;;;;;;116730;1200;24936;-77
2022/12/26 14:38:43;;;;;;;;;5.50;5.50;;;;;;;;116778;1199;25478;-76
2022/12/26 14:44:17;;;;;;;;;10.00;9.00;;;;;;;;116736;1199;25106;-74
2022/12/26 14:46:48;;;;;;;;;8.50;6.00;;;;;;;;116843;1200;25539;-81
2022/12/26 14:49:37;;;;;;;;;17.00;11.00;;;;;;;;117066;1197;25467;-81
2022/12/26 14:52:24;;;;;;;;;9.00;8.00;;;;;;;;116756;1208;25590;-81
2022/12/26 14:54:53;;;;;;;;;10.00;10.00;;;;;;;;116801;1203;25549;-81
2022/12/26 14:57:45;;;;;;;;;6.75;6.75;;;;;;;;116807;1199;25262;-81
2022/12/26 15:00:15;;;;;;;;;7.00;7.00;;;;;;;;116762;1200;25383;-82
2022/12/26 15:02:48;;;;;;;;;8.00;7.00;;;;;;;;116763;1204;25456;-81
2022/12/26 15:05:23;;;;;;;;;10.67;8.00;;;;;;;;116769;1202;25588;-81
2022/12/26 15:08:18;;;;;;;;;10.00;8.50;;;;;;;;116771;1200;25288;-82
2022/12/26 15:11:07;;;;;;;;;8.00;7.67;;;;;;;;116658;1206;25370;-82
2022/12/26 15:14:17;;;;;;;;;7.50;6.75;;;;;;;;116725;1200;24759;-81
2022/12/26 15:16:57;;;;;;;;;9.00;9.00;;;;;;;;116797;1195;24791;-80
2022/12/26 15:19:32;;;;;;;;;11.00;7.00;;;;;;;;116764;1189;25061;-81
2022/12/26 15:22:30;;;;;;;;;15.00;10.00;;;;;;;;116713;1203;26233;-81
2022/12/26 15:25:37;;;;;;;;;5.67;5.00;;;;;;;;116720;1197;24906;-82
2022/12/26 15:28:30;;;;;;;;;7.33;6.33;;;;;;;;116739;1207;24655;-81
2022/12/26 15:31:13;;;;;;;;;9.00;8.00;;;;;;;;116793;1196;25330;-81
2022/12/26 15:34:10;;;;;;;;;6.00;6.00;;;;;;;;116714;1200;25142;-82
2022/12/26 15:37:00;;;;;;;;;12.00;10.67;;;;;;;;116770;1206;24832;-81
2022/12/26 15:39:43;;;;;;;;;7.00;6.50;;;;;;;;116742;1205;25313;-81
2022/12/26 15:42:23;;;;;;;;;11.33;10.00;;;;;;;;116738;1193;25638;-81
2022/12/26 15:45:07;;;;;;;;;10.00;10.00;;;;;;;;116743;1200;25338;-81
2022/12/26 15:47:44;;;;;;;;;11.00;7.33;;;;;;;;116795;1197;24926;-81
2022/12/26 15:50:50;;;;;;;;;13.00;10.00;;;;;;;;116764;1208;25884;-81
2022/12/26 15:53:34;;;;;;;;;8.50;7.00;;;;;;;;116750;1198;25535;-81
2022/12/26 15:56:21;;;;;;;;;9.00;8.00;;;;;;;;116791;1200;25421;-81
2022/12/26 15:59:07;;;;;;;;;7.67;6.33;;;;;;;;116735;1203;25662;-81
2022/12/26 16:01:44;;;;;;;;;12.00;11.00;;;;;;;;116717;1193;24968;-82
2022/12/26 16:04:37;;;;;;;;;9.33;9.33;;;;;;;;116847;1190;25251;-81
2022/12/26 16:07:26;;;;;;;;;11.00;8.50;;;;;;;;116799;1197;24936;-81
2022/12/26 16:09:55;;;;;;;;;13.50;9.00;;;;;;;;116787;1200;25184;-81
2022/12/26 16:12:24;;;;;;;;;13.00;10.67;;;;;;;;116777;1203;25617;-81
2022/12/26 16:15:19;;;;;;;;;8.00;8.00;;;;;;;;116716;1199;25055;-81
2022/12/26 16:17:47;;;;;;;;;11.00;8.50;;;;;;;;116791;1208;25007;-80
2022/12/26 16:23:18;;;;;;;;;12.00;9.00;;;;;;;;116672;1200;25313;-81
2022/12/26 16:25:48;;;;;;;;;14.00;11.00;;;;;;;;116648;1206;24985;-81
2022/12/26 16:28:22;;;;;;;;;9.00;9.00;;;;;;;;116754;1200;25307;-80
2022/12/26 16:30:51;;;;;;;;;8.00;8.00;;;;;;;;116779;1198;25196;-79
2022/12/26 16:33:20;;;;;;;;;9.00;8.00;;;;;;;;116717;1194;25452;-80
2022/12/26 16:35:50;;;;;;;;;10.67;8.33;;;;;;;;116756;1200;25484;-79
2022/12/26 16:38:29;;;;;;;;;8.50;6.00;;;;;;;;116771;1189;24979;-80
2022/12/26 16:40:59;;;;;;;;;9.00;9.00;;;;;;;;116731;1193;24762;-80
2022/12/26 16:43:29;;;;;;;;;11.00;11.00;;;;;;;;116761;1198;25140;-80
2022/12/26 16:46:01;;;;;;;;;9.33;9.00;;;;;;;;116755;1200;25041;-81
2022/12/26 16:48:31;;;;;;;;;11.00;8.00;;;;;;;;116766;1199;24819;-80
2022/12/26 16:51:02;;;;;;;;;11.00;8.00;;;;;;;;116736;1198;25376;-78
2022/12/26 16:53:34;;;;;;;;;8.00;7.00;;;;;;;;116774;1203;25335;-78
2022/12/26 16:56:28;;;;;;;;;11.33;7.67;;;;;;;;116725;1198;25609;-80
2022/12/26 16:59:11;;;;;;;;;7.50;7.50;;;;;;;;116768;1203;24914;-80
2022/12/26 17:01:49;;;;;;;;;6.50;6.50;;;;;;;;116754;1196;25494;-79
2022/12/26 17:04:21;;;;;;;;;7.00;7.00;;;;;;;;116741;1197;24900;-79
2022/12/26 17:06:56;;;;;;;;;7.50;7.00;;;;;;;;116775;1200;25092;-80
2022/12/26 17:09:26;;;;;;;;;9.00;8.00;;;;;;;;116777;1203;24827;-80
2022/12/26 17:11:58;;;;;;;;;14.00;14.00;;;;;;;;116777;1198;25133;-78
2022/12/26 17:14:33;;;;;;;;;12.00;11.00;;;;;;;;116750;1203;25611;-79
2022/12/26 17:17:07;;;;;;;;;13.00;7.00;;;;;;;;116805;1193;25520;-80
2022/12/26 17:19:36;;;;;;;;;11.33;9.00;;;;;;;;116791;1208;24728;-79
2022/12/26 17:22:13;;;;;;;;;13.00;7.00;;;;;;;;116803;1199;26064;-80
2022/12/26 17:24:42;;;;;;;;;7.00;6.00;;;;;;;;117088;1191;24888;-79
2022/12/26 17:27:24;;;;;;;;;14.50;11.00;;;;;;;;116804;1199;24929;-79
2022/12/26 17:29:58;;;;;;;;;11.00;7.33;;;;;;;;116752;1198;25273;-80
2022/12/26 17:32:31;;;;;;;;;9.00;9.00;;;;;;;;116782;1203;25589;-80